createdAt,value
2023-05-17T00:00:39.834Z,100188.81
2023-05-17T00:03:08.263Z,100179.47
2023-05-17T00:05:36.603Z,100181.16
2023-05-17T00:08:07.069Z,100179.63
2023-05-17T00:10:35.345Z,100193.28
2023-05-17T00:13:04.537Z,100193.28
2023-05-17T00:15:32.854Z,100198.34
2023-05-17T00:18:01.255Z,100196.44
2023-05-17T00:20:29.757Z,100200.00
2023-05-17T00:22:58.016Z,100210.34
2023-05-17T00:25:28.442Z,100208.22
2023-05-17T00:27:56.845Z,100214.13
2023-05-17T00:30:25.129Z,100214.63
2023-05-17T00:32:53.752Z,100209.22
2023-05-17T00:35:22.356Z,100201.81
2023-05-17T00:37:50.741Z,100207.41
2023-05-17T00:40:19.161Z,100204.88
2023-05-17T00:42:49.091Z,100210.59
2023-05-17T00:45:17.351Z,100206.75
2023-05-17T00:47:45.655Z,100210.59
2023-05-17T00:50:14.143Z,100194.94
2023-05-17T00:52:42.551Z,100190.81
2023-05-17T00:55:11.023Z,100187.44
2023-05-17T00:57:39.593Z,100192.28
2023-05-17T01:00:10.808Z,100177.44
2023-05-17T01:02:39.300Z,100178.47
2023-05-17T01:05:08.250Z,100173.06
2023-05-17T01:07:36.611Z,100172.25
2023-05-17T01:10:05.300Z,100165.38
2023-05-17T01:12:43.942Z,100152.25
2023-05-17T01:15:17.697Z,100170.34
2023-05-17T01:17:55.777Z,100154.19
2023-05-17T01:20:29.905Z,100139.81
2023-05-17T01:23:12.453Z,100123.22
2023-05-17T01:25:56.493Z,100109.19
2023-05-17T01:28:27.834Z,100096.19
2023-05-17T01:30:59.970Z,100085.78
2023-05-17T01:33:28.983Z,100087.88
2023-05-17T01:35:57.542Z,100086.69
2023-05-17T01:38:25.832Z,100082.38
2023-05-17T01:41:00.144Z,100080.09
2023-05-17T01:43:37.055Z,100071.69
2023-05-17T01:46:14.030Z,100064.06
2023-05-17T01:48:51.586Z,100055.19
2023-05-17T01:51:22.412Z,100047.22
2023-05-17T01:53:58.569Z,100037.50
2023-05-17T01:56:34.838Z,100034.91
2023-05-17T01:59:08.210Z,100032.97
2023-05-17T02:01:37.905Z,100022.44
2023-05-17T02:04:06.476Z,100020.19
2023-05-17T02:06:34.757Z,100019.31
2023-05-17T02:09:03.344Z,100009.88
2023-05-17T02:11:32.464Z,100008.31
2023-05-17T02:14:00.772Z,100000.91
2023-05-17T02:16:30.917Z,100001.09
2023-05-17T02:18:59.516Z,99995.50
2023-05-17T02:21:27.814Z,99998.75
2023-05-17T02:23:56.088Z,99995.41
2023-05-17T02:26:24.521Z,99997.28
2023-05-17T02:28:52.836Z,100009.41
2023-05-17T02:31:21.280Z,100013.03
2023-05-17T02:33:51.042Z,100033.56
2023-05-17T02:36:19.411Z,100039.50
2023-05-17T02:38:47.869Z,100052.84
2023-05-17T02:41:16.152Z,100054.34
2023-05-17T02:43:44.513Z,100068.13
2023-05-17T02:46:12.824Z,100078.09
2023-05-17T02:48:41.123Z,100083.97
2023-05-17T02:51:11.085Z,100081.03
2023-05-17T02:53:39.343Z,100092.94
2023-05-17T02:56:08.472Z,100077.44
2023-05-17T02:58:36.763Z,100072.28
2023-05-17T03:01:06.220Z,100075.06
2023-05-17T03:03:34.776Z,100085.41
2023-05-17T03:06:05.004Z,100072.38
2023-05-17T03:08:34.994Z,100052.41
2023-05-17T03:11:04.056Z,100044.66
2023-05-17T03:13:32.393Z,100052.06
2023-05-17T03:16:00.882Z,100059.38
2023-05-17T03:18:29.481Z,100067.69
2023-05-17T03:20:57.922Z,100064.34
2023-05-17T03:23:26.250Z,100070.50
2023-05-17T03:25:56.030Z,100101.47
2023-05-17T03:28:24.341Z,100108.66
2023-05-17T03:30:53.295Z,100118.56
2023-05-17T03:33:21.776Z,100121.94
2023-05-17T03:35:50.370Z,100124.38
2023-05-17T03:38:18.823Z,100119.81
2023-05-17T03:40:47.106Z,100114.41
2023-05-17T03:43:16.779Z,100117.97
2023-05-17T03:45:45.207Z,100119.00
2023-05-17T03:48:13.633Z,100103.97
2023-05-17T03:50:42.259Z,100098.56
2023-05-17T03:53:11.221Z,100097.41
2023-05-17T03:55:40.053Z,100088.56
2023-05-17T03:58:08.427Z,100072.47
2023-05-17T04:00:38.318Z,100083.13
2023-05-17T04:03:06.616Z,100072.25
2023-05-17T04:05:34.892Z,100071.00
2023-05-17T04:08:03.352Z,100080.44
2023-05-17T04:10:31.969Z,100083.38
2023-05-17T04:13:00.373Z,100082.81
2023-05-17T04:15:28.887Z,100112.13
2023-05-17T04:18:00.023Z,100088.31
2023-05-17T04:20:28.600Z,100101.66
2023-05-17T04:22:56.891Z,100117.38
2023-05-17T04:25:25.321Z,100139.06
2023-05-17T04:27:53.603Z,100150.63
2023-05-17T04:30:24.154Z,100163.69
2023-05-17T04:32:52.509Z,100156.50
2023-05-17T04:35:22.294Z,100154.72
2023-05-17T04:37:50.697Z,100150.84
2023-05-17T04:40:19.137Z,100151.06
2023-05-17T04:42:47.715Z,100140.69
2023-05-17T04:45:16.329Z,100138.66
2023-05-17T04:47:44.987Z,100133.38
2023-05-17T04:50:13.692Z,100134.38
2023-05-17T04:52:43.405Z,100136.16
2023-05-17T04:55:11.923Z,100137.53
2023-05-17T04:57:40.256Z,100149.38
2023-05-17T05:00:10.284Z,100144.44
2023-05-17T05:02:38.699Z,100160.41
2023-05-17T05:05:08.026Z,100168.50
2023-05-17T05:07:36.515Z,100173.91
2023-05-17T05:10:07.108Z,100169.19
2023-05-17T05:12:35.428Z,100180.97
2023-05-17T05:15:03.811Z,100178.31
2023-05-17T05:17:32.582Z,100178.41
2023-05-17T05:20:01.012Z,100176.41
2023-05-17T05:22:29.409Z,100190.78
2023-05-17T05:24:57.850Z,100178.22
2023-05-17T05:27:27.628Z,100184.81
2023-05-17T05:29:56.998Z,100172.66
2023-05-17T05:32:25.436Z,100177.84
2023-05-17T05:34:53.897Z,100168.91
2023-05-17T05:37:22.167Z,100168.06
2023-05-17T05:39:50.405Z,100183.72
2023-05-17T05:42:18.904Z,100167.38
2023-05-17T05:44:48.707Z,100167.03
2023-05-17T05:47:17.039Z,100164.94
2023-05-17T05:49:45.345Z,100164.00
2023-05-17T05:52:13.660Z,100160.38
2023-05-17T05:54:41.970Z,100163.31
2023-05-17T05:57:10.322Z,100175.72
2023-05-17T05:59:38.553Z,100175.72
2023-05-17T06:02:08.635Z,100179.81
2023-05-17T06:04:45.214Z,100182.00
2023-05-17T06:07:14.527Z,100189.94
2023-05-17T06:09:43.213Z,100184.72
2023-05-17T06:12:11.743Z,100191.16
2023-05-17T06:14:40.079Z,100185.41
2023-05-17T06:17:09.770Z,100188.34
2023-05-17T06:19:38.207Z,100193.97
2023-05-17T06:22:06.809Z,100205.97
2023-05-17T06:24:35.056Z,100201.09
2023-05-17T06:27:03.366Z,100196.53
2023-05-17T06:29:31.845Z,100193.22
2023-05-17T06:32:00.135Z,100193.69
2023-05-17T06:34:29.962Z,100182.84
2023-05-17T06:36:58.342Z,100193.44
2023-05-17T06:39:26.936Z,100192.53
2023-05-17T06:41:55.180Z,100190.38
2023-05-17T06:44:23.523Z,100193.00
2023-05-17T06:46:51.850Z,100192.66
2023-05-17T06:49:20.116Z,100201.13
2023-05-17T06:51:50.078Z,100209.25
2023-05-17T06:54:19.736Z,100204.34
2023-05-17T06:56:48.073Z,100195.09
2023-05-17T06:59:16.717Z,100209.13
2023-05-17T07:01:44.958Z,100192.91
2023-05-17T07:04:13.511Z,100194.63
2023-05-17T07:06:41.973Z,100208.94
2023-05-17T07:09:11.805Z,100203.84
2023-05-17T07:11:40.373Z,100200.44
2023-05-17T07:14:08.915Z,100205.97
2023-05-17T07:16:37.215Z,100209.63
2023-05-17T07:19:05.724Z,100204.78
2023-05-17T07:21:35.229Z,100201.78
2023-05-17T07:24:03.606Z,100203.25
2023-05-17T07:26:33.432Z,100208.06
2023-05-17T07:29:01.797Z,100202.81
2023-05-17T07:31:30.145Z,100209.91
2023-05-17T07:33:58.575Z,100205.97
2023-05-17T07:36:30.681Z,100207.22
2023-05-17T07:38:59.745Z,100202.03
2023-05-17T07:41:28.086Z,100204.06
2023-05-17T07:43:57.784Z,100199.38
2023-05-17T07:46:26.266Z,100196.50
2023-05-17T07:48:58.148Z,100201.34
2023-05-17T07:51:27.253Z,100202.81
2023-05-17T07:53:55.582Z,100192.72
2023-05-17T07:56:24.184Z,100188.28
2023-05-17T07:58:52.658Z,100177.34
2023-05-17T08:01:23.300Z,100163.53
2023-05-17T08:03:51.694Z,100168.06
2023-05-17T08:06:20.398Z,100167.00
2023-05-17T08:08:48.700Z,100162.09
2023-05-17T08:11:18.244Z,100155.47
2023-05-17T08:13:46.539Z,100154.91
2023-05-17T08:16:15.085Z,100146.66
2023-05-17T08:18:45.296Z,100165.03
2023-05-17T08:21:13.728Z,100151.47
2023-05-17T08:23:42.813Z,100143.25
2023-05-17T08:26:12.668Z,100143.47
2023-05-17T08:28:41.026Z,100148.22
2023-05-17T08:31:09.263Z,100140.88
2023-05-17T08:33:37.869Z,100149.25
2023-05-17T08:36:08.914Z,100145.53
2023-05-17T08:38:37.421Z,100137.09
2023-05-17T08:41:05.928Z,100136.25
2023-05-17T08:43:34.272Z,100138.19
2023-05-17T08:46:04.367Z,100150.44
2023-05-17T08:48:36.954Z,100135.22
2023-05-17T08:51:05.592Z,100138.34
2023-05-17T08:53:36.826Z,100142.75
2023-05-17T08:56:07.198Z,100147.63
2023-05-17T08:58:52.432Z,100141.75
2023-05-17T09:01:26.913Z,100161.72
2023-05-17T09:03:56.567Z,100157.78
2023-05-17T09:06:25.540Z,100158.16
2023-05-17T09:08:55.979Z,100157.72
2023-05-17T09:11:28.864Z,100156.47
2023-05-17T09:14:00.345Z,100152.78
2023-05-17T09:16:30.448Z,100141.78
2023-05-17T09:19:00.032Z,100122.66
2023-05-17T09:21:31.751Z,100110.63
2023-05-17T09:24:07.068Z,100119.25
2023-05-17T09:26:40.585Z,100107.13
2023-05-17T09:29:13.149Z,100116.03
2023-05-17T09:31:41.850Z,100122.38
2023-05-17T09:34:10.645Z,100125.19
2023-05-17T09:36:44.753Z,100111.53
2023-05-17T09:39:15.362Z,100113.16
2023-05-17T09:41:46.825Z,100113.53
2023-05-17T09:44:16.778Z,100103.63
2023-05-17T09:46:47.536Z,100106.06
2023-05-17T09:49:16.906Z,100105.81
2023-05-17T09:51:46.993Z,100106.34
2023-05-17T09:54:17.888Z,100115.56
2023-05-17T09:56:46.682Z,100111.13
2023-05-17T09:59:16.253Z,100111.81
2023-05-17T10:01:46.227Z,100103.00
2023-05-17T10:04:15.184Z,100101.28
2023-05-17T10:06:49.579Z,100092.03
2023-05-17T10:09:24.207Z,100101.66
2023-05-17T10:11:54.166Z,100081.47
2023-05-17T10:14:27.937Z,100085.41
2023-05-17T10:16:57.356Z,100081.34
2023-05-17T10:19:26.953Z,100081.25
2023-05-17T10:22:00.302Z,100075.69
2023-05-17T10:24:38.764Z,100079.25
2023-05-17T10:27:08.210Z,100086.72
2023-05-17T10:29:39.729Z,100084.38
2023-05-17T10:32:09.475Z,100084.44
2023-05-17T10:34:39.328Z,100073.34
2023-05-17T10:37:08.373Z,100079.84
2023-05-17T10:39:39.054Z,100068.53
2023-05-17T10:44:41.139Z,100079.44
2023-05-17T10:47:09.926Z,100075.56
2023-05-17T10:49:41.632Z,100070.88
2023-05-17T10:52:14.507Z,100071.25
2023-05-17T10:54:46.104Z,100073.38
2023-05-17T10:57:22.043Z,100072.25
2023-05-17T10:59:59.183Z,100088.03
2023-05-17T11:02:28.820Z,100081.72
2023-05-17T11:04:58.104Z,100077.91
2023-05-17T11:07:32.793Z,100091.47
2023-05-17T11:10:11.482Z,100094.53
2023-05-17T11:12:42.238Z,100093.44
2023-05-17T11:15:11.761Z,100090.63
2023-05-17T11:17:54.920Z,100089.84
2023-05-17T11:20:35.028Z,100091.25
2023-05-17T11:23:06.050Z,100080.16
2023-05-17T11:25:37.077Z,100073.44
2023-05-17T11:28:11.072Z,100067.13
2023-05-17T11:30:51.141Z,100062.34
2023-05-17T11:33:29.783Z,100059.75
2023-05-17T11:36:07.081Z,100059.44
2023-05-17T11:38:35.841Z,100059.94
2023-05-17T11:43:54.707Z,100063.56
2023-05-17T11:46:24.335Z,100056.28
2023-05-17T11:48:54.301Z,100053.63
2023-05-17T11:51:25.099Z,100042.75
2023-05-17T11:53:55.839Z,100031.94
2023-05-17T11:56:39.544Z,100021.91
2023-05-17T11:59:11.684Z,100029.94
2023-05-17T12:01:47.417Z,100032.25
2023-05-17T12:04:16.386Z,100045.09
2023-05-17T12:06:46.365Z,100036.34
2023-05-17T12:09:17.964Z,100041.84
2023-05-17T12:11:47.974Z,100043.66
2023-05-17T12:14:20.464Z,100041.16
2023-05-17T12:16:52.835Z,100037.25
2023-05-17T12:19:28.072Z,100035.19
2023-05-17T12:22:07.346Z,100038.16
2023-05-17T12:24:39.830Z,100035.25
2023-05-17T12:27:09.959Z,100033.75
2023-05-17T12:29:38.382Z,100028.59
2023-05-17T12:32:09.376Z,100036.44
2023-05-17T12:34:37.947Z,100029.97
2023-05-17T12:37:10.917Z,100026.28
2023-05-17T12:39:39.890Z,100034.34
2023-05-17T12:42:10.899Z,100034.16
2023-05-17T12:44:39.273Z,100033.81
2023-05-17T12:47:08.199Z,100027.81
2023-05-17T12:49:40.539Z,100030.78
2023-05-17T12:52:09.325Z,100031.38
2023-05-17T12:54:37.680Z,100022.31
2023-05-17T12:57:16.144Z,100010.69
2023-05-17T12:59:49.270Z,100017.16
2023-05-17T13:02:18.180Z,100011.19
2023-05-17T13:04:47.561Z,100014.88
2023-05-17T13:07:24.298Z,100000.06
2023-05-17T13:09:52.907Z,99994.50
2023-05-17T13:12:24.029Z,99995.91
2023-05-17T13:14:54.830Z,99993.03
2023-05-17T13:17:27.138Z,99989.31
2023-05-17T13:19:57.925Z,100001.28
2023-05-17T13:22:26.521Z,99991.34
2023-05-17T13:24:55.278Z,99973.97
2023-05-17T13:27:25.036Z,99969.03
2023-05-17T13:29:53.637Z,99962.84
2023-05-17T13:32:22.832Z,99948.16
2023-05-17T13:34:51.418Z,99958.94
2023-05-17T13:37:21.204Z,99957.50
2023-05-17T13:39:49.673Z,99946.81
2023-05-17T13:42:18.044Z,99950.56
2023-05-17T13:44:47.808Z,99949.97
2023-05-17T13:47:16.160Z,99942.81
2023-05-17T13:49:44.504Z,99955.22
2023-05-17T13:52:13.494Z,99942.53
2023-05-17T13:54:41.821Z,99948.69
2023-05-17T13:57:10.110Z,99926.00
2023-05-17T13:59:39.379Z,99921.19
2023-05-17T14:02:10.607Z,99914.31
2023-05-17T14:04:39.586Z,99915.28
2023-05-17T14:07:07.946Z,99930.19
2023-05-17T14:09:37.032Z,99914.59
2023-05-17T14:12:06.281Z,99930.91
2023-05-17T14:14:34.671Z,99926.66
2023-05-17T14:17:03.222Z,99907.75
2023-05-17T14:19:33.295Z,99913.75
2023-05-17T14:22:01.864Z,99926.66
2023-05-17T14:24:30.210Z,99929.34
2023-05-17T14:26:58.877Z,99921.06
2023-05-17T14:29:27.354Z,99923.59
2023-05-17T14:31:55.707Z,99920.75
2023-05-17T14:34:23.999Z,99961.00
2023-05-17T14:36:54.766Z,99948.22
2023-05-17T14:39:23.148Z,99945.09
2023-05-17T14:41:51.676Z,99928.53
2023-05-17T14:44:19.930Z,99927.28
2023-05-17T14:46:48.222Z,99925.16
2023-05-17T14:49:16.616Z,99925.38
2023-05-17T14:51:45.187Z,99915.53
2023-05-17T14:54:14.984Z,99926.00
2023-05-17T14:56:45.531Z,99924.59
2023-05-17T14:59:13.965Z,99915.91
2023-05-17T15:01:42.477Z,99910.69
2023-05-17T15:04:10.900Z,99909.19
2023-05-17T15:06:39.385Z,99906.84
2023-05-17T15:09:08.062Z,99902.53
2023-05-17T15:11:37.923Z,99909.06
2023-05-17T15:14:06.740Z,99910.41
2023-05-17T15:16:36.350Z,99903.47
2023-05-17T15:19:04.854Z,99911.50
2023-05-17T15:21:33.195Z,99910.88
2023-05-17T15:24:01.478Z,99917.38
2023-05-17T15:26:29.865Z,99914.44
2023-05-17T15:28:59.582Z,99911.44
2023-05-17T15:31:29.935Z,99930.38
2023-05-17T15:33:58.823Z,99935.63
2023-05-17T15:36:27.224Z,99917.25
2023-05-17T15:38:55.596Z,99950.91
2023-05-17T15:41:29.791Z,99924.56
2023-05-17T15:43:59.868Z,99933.13
2023-05-17T15:46:28.271Z,99928.63
2023-05-17T15:48:58.120Z,99945.81
2023-05-17T15:51:26.753Z,99956.19
2023-05-17T15:53:55.139Z,99951.38
2023-05-17T15:56:23.538Z,99946.25
2023-05-17T15:58:52.102Z,99946.69
2023-05-17T16:01:21.992Z,99942.28
2023-05-17T16:03:50.621Z,99947.66
2023-05-17T16:06:20.075Z,99950.47
2023-05-17T16:08:48.394Z,99956.47
2023-05-17T16:11:17.209Z,99950.22
2023-05-17T16:13:45.597Z,99956.41
2023-05-17T16:16:14.667Z,99949.34
2023-05-17T16:18:44.456Z,99962.75
2023-05-17T16:21:13.614Z,99971.66
2023-05-17T16:23:42.423Z,99968.34
2023-05-17T16:26:10.962Z,99979.72
2023-05-17T16:28:39.326Z,99975.97
2023-05-17T16:31:07.916Z,99973.44
2023-05-17T16:33:36.716Z,99979.28
2023-05-17T16:36:07.082Z,99977.13
2023-05-17T16:38:35.626Z,99978.31
2023-05-17T16:41:04.014Z,99980.19
2023-05-17T16:43:32.660Z,99970.44
2023-05-17T16:46:01.138Z,99981.88
2023-05-17T16:48:29.740Z,99992.50
2023-05-17T16:50:59.580Z,99991.72
2023-05-17T16:53:29.525Z,99983.97
2023-05-17T16:55:57.891Z,99978.56
2023-05-17T16:58:26.904Z,99995.22
2023-05-17T17:00:55.168Z,99988.59
2023-05-17T17:03:23.507Z,99997.03
2023-05-17T17:05:51.900Z,100004.00
2023-05-17T17:08:20.297Z,99998.94
2023-05-17T17:10:50.043Z,100005.38
2023-05-17T17:13:18.419Z,100029.22
2023-05-17T17:15:46.809Z,99995.94
2023-05-17T17:18:15.281Z,100001.00
2023-05-17T17:20:44.106Z,99986.72
2023-05-17T17:23:12.538Z,99995.75
2023-05-17T17:25:40.982Z,100004.16
2023-05-17T17:28:10.854Z,100006.19
2023-05-17T17:30:39.231Z,100011.25
2023-05-17T17:33:07.551Z,100004.97
2023-05-17T17:35:35.943Z,100008.09
2023-05-17T17:38:04.416Z,100021.91
2023-05-17T17:40:32.909Z,100010.34
2023-05-17T17:43:01.496Z,100017.91
2023-05-17T17:45:31.222Z,100024.78
2023-05-17T17:47:59.801Z,100020.38
2023-05-17T17:50:28.278Z,100014.84
2023-05-17T17:52:56.984Z,100002.94
2023-05-17T17:55:25.455Z,100029.50
2023-05-17T17:57:54.009Z,100022.53
2023-05-17T18:00:22.785Z,100027.22
2023-05-17T18:02:52.749Z,100023.28
2023-05-17T18:05:21.755Z,100030.59
2023-05-17T18:07:50.238Z,100036.44
2023-05-17T18:10:18.663Z,100038.09
2023-05-17T18:12:47.510Z,100038.00
2023-05-17T18:15:16.611Z,100041.16
2023-05-17T18:17:45.200Z,100026.44
2023-05-17T18:20:15.049Z,100043.63
2023-05-17T18:22:43.411Z,100035.06
2023-05-17T18:25:11.934Z,100031.84
2023-05-17T18:27:41.541Z,100045.50
2023-05-17T18:30:10.872Z,100046.00
2023-05-17T18:32:39.449Z,100030.13
2023-05-17T18:35:08.577Z,100034.88
2023-05-17T18:37:38.491Z,100028.91
2023-05-17T18:40:08.081Z,100046.88
2023-05-17T18:42:36.518Z,100045.50
2023-05-17T18:45:05.348Z,100039.47
2023-05-17T18:47:33.949Z,100032.94
2023-05-17T18:50:02.252Z,100025.19
2023-05-17T18:52:30.672Z,100037.00
2023-05-17T18:55:00.398Z,100024.28
2023-05-17T18:57:28.776Z,100034.28
2023-05-17T18:59:57.300Z,100032.16
2023-05-17T19:02:25.639Z,100031.94
2023-05-17T19:04:54.031Z,100048.47
2023-05-17T19:07:22.391Z,100041.16
2023-05-17T19:09:50.816Z,100044.31
2023-05-17T19:12:20.643Z,100042.81
2023-05-17T19:14:49.016Z,100047.00
2023-05-17T19:17:17.646Z,100041.94
2023-05-17T19:19:46.054Z,100040.25
2023-05-17T19:22:14.585Z,100034.63
2023-05-17T19:24:42.891Z,100038.34
2023-05-17T19:27:12.254Z,100037.09
2023-05-17T19:29:42.084Z,100038.22
2023-05-17T19:32:10.337Z,100044.75
2023-05-17T19:34:38.680Z,100036.09
2023-05-17T19:37:07.407Z,100029.50
2023-05-17T19:39:36.534Z,100024.44
2023-05-17T19:42:05.448Z,100021.84
2023-05-17T19:44:33.896Z,100024.28
2023-05-17T19:47:03.604Z,100031.94
2023-05-17T19:49:32.033Z,100028.00
2023-05-17T19:52:00.847Z,100008.88
2023-05-17T19:54:29.959Z,100007.22
2023-05-17T19:56:59.748Z,100013.19
2023-05-17T19:59:28.216Z,100000.84
2023-05-17T20:01:56.592Z,100001.97
2023-05-17T20:04:26.434Z,100007.22
2023-05-17T20:06:55.150Z,100007.72
2023-05-17T20:09:26.916Z,100008.81
2023-05-17T20:11:55.448Z,99983.09
2023-05-17T20:14:23.757Z,99979.84
2023-05-17T20:16:52.305Z,99980.63
2023-05-17T20:19:20.829Z,99988.91
2023-05-17T20:21:50.777Z,99976.13
2023-05-17T20:24:19.501Z,99980.63
2023-05-17T20:26:49.080Z,99974.09
2023-05-17T20:29:18.531Z,99972.00
2023-05-17T20:31:46.878Z,99968.16
2023-05-17T20:34:15.281Z,99952.78
2023-05-17T20:36:43.560Z,99961.44
2023-05-17T20:39:15.364Z,99957.28
2023-05-17T20:41:43.701Z,99961.66
2023-05-17T20:44:12.727Z,99962.44
2023-05-17T20:46:41.094Z,99951.91
2023-05-17T20:49:09.974Z,99961.78
2023-05-17T20:51:38.418Z,99955.19
2023-05-17T20:54:08.894Z,99951.13
2023-05-17T20:56:40.276Z,99945.72
2023-05-17T20:59:08.979Z,99938.75
2023-05-17T21:01:37.745Z,99943.84
2023-05-17T21:04:06.214Z,99933.97
2023-05-17T21:06:34.587Z,99941.59
2023-05-17T21:09:03.010Z,99930.91
2023-05-17T21:11:31.913Z,99935.63
2023-05-17T21:14:01.616Z,99938.31
2023-05-17T21:16:30.534Z,99939.44
2023-05-17T21:18:58.973Z,99934.47
2023-05-17T21:21:27.361Z,99929.19
2023-05-17T21:23:55.802Z,99936.75
2023-05-17T21:26:24.441Z,99937.63
2023-05-17T21:28:52.719Z,99954.03
2023-05-17T21:31:22.582Z,99936.06
2023-05-17T21:33:51.784Z,99927.06
2023-05-17T21:36:20.130Z,99931.69
2023-05-17T21:38:48.445Z,99930.13
2023-05-17T21:41:16.970Z,99930.22
2023-05-17T21:43:45.334Z,99943.25
2023-05-17T21:46:13.666Z,99944.91
2023-05-17T21:48:43.581Z,99937.97
2023-05-17T21:51:11.902Z,99928.22
2023-05-17T21:53:40.185Z,99934.19
2023-05-17T21:56:08.817Z,99922.63
2023-05-17T21:58:37.227Z,99925.31
2023-05-17T22:01:05.627Z,99923.75
2023-05-17T22:03:34.069Z,99916.00
2023-05-17T22:06:03.823Z,99926.22
2023-05-17T22:08:33.231Z,99926.56
2023-05-17T22:11:01.546Z,99934.06
2023-05-17T22:13:32.808Z,99921.81
2023-05-17T22:16:02.094Z,99922.63
2023-05-17T22:18:32.170Z,99924.53
2023-05-17T22:21:00.661Z,99913.66
2023-05-17T22:23:30.573Z,99916.97
2023-05-17T22:26:00.532Z,99912.97
2023-05-17T22:28:29.218Z,99908.34
2023-05-17T22:30:57.549Z,99905.06
2023-05-17T22:33:25.928Z,99901.41
2023-05-17T22:35:54.407Z,99894.88
2023-05-17T22:38:23.788Z,99902.81
2023-05-17T22:40:53.531Z,99908.00
2023-05-17T22:43:22.735Z,99904.66
2023-05-17T22:45:51.307Z,99891.34
2023-05-17T22:48:21.198Z,99887.66
2023-05-17T22:50:50.658Z,99892.97
2023-05-17T22:53:19.311Z,99902.19
2023-05-17T22:55:49.129Z,99886.63
2023-05-17T22:58:19.641Z,99901.59
2023-05-17T23:00:51.068Z,99888.22
2023-05-17T23:03:20.126Z,99890.13
2023-05-17T23:05:48.555Z,99885.78
2023-05-17T23:08:17.050Z,99893.75
2023-05-17T23:10:46.016Z,99893.06
2023-05-17T23:13:14.605Z,99903.75
2023-05-17T23:15:46.905Z,99901.59
2023-05-17T23:18:16.154Z,99898.09
2023-05-17T23:20:45.658Z,99896.28
2023-05-17T23:23:15.539Z,99894.63
2023-05-17T23:25:44.907Z,99890.47
2023-05-17T23:28:14.682Z,99891.25
2023-05-17T23:30:44.732Z,99881.69
2023-05-17T23:33:13.017Z,99887.78
2023-05-17T23:35:41.315Z,99887.66
2023-05-17T23:38:09.711Z,99896.78
2023-05-17T23:40:38.303Z,99882.69
2023-05-17T23:43:08.728Z,99887.38
2023-05-17T23:45:37.190Z,99909.72
2023-05-17T23:48:09.904Z,99888.97
2023-05-17T23:50:38.355Z,99911.38
2023-05-17T23:53:09.883Z,99901.75
2023-05-17T23:55:38.817Z,99919.03
2023-05-17T23:58:07.351Z,99904.78
